createdAt,value
2022-11-25T00:01:31.473Z,8.30
2022-11-25T00:04:18.436Z,8.40
2022-11-25T00:07:05.561Z,8.40
2022-11-25T00:09:52.505Z,8.40
2022-11-25T00:12:39.462Z,8.40
2022-11-25T00:15:26.785Z,8.50
2022-11-25T00:18:13.682Z,8.50
2022-11-25T00:21:06.402Z,8.50
2022-11-25T00:24:05.228Z,8.50
2022-11-25T00:26:52.476Z,8.60
2022-11-25T00:29:39.458Z,8.60
2022-11-25T00:32:26.536Z,8.60
2022-11-25T00:35:13.741Z,8.60
2022-11-25T00:38:00.728Z,8.60
2022-11-25T00:41:11.935Z,8.60
2022-11-25T00:44:17.596Z,8.70
2022-11-25T00:47:08.464Z,8.70
2022-11-25T00:49:55.437Z,8.70
2022-11-25T00:52:42.325Z,8.70
2022-11-25T00:55:49.479Z,8.80
2022-11-25T00:58:36.379Z,8.80
2022-11-25T01:01:24.147Z,8.90
2022-11-25T01:04:11.499Z,8.90
2022-11-25T01:06:59.970Z,9.00
2022-11-25T01:09:47.860Z,9.00
2022-11-25T01:12:34.847Z,8.90
2022-11-25T01:15:21.732Z,8.90
2022-11-25T01:18:08.687Z,9.00
2022-11-25T01:20:55.731Z,9.00
2022-11-25T01:23:43.573Z,9.00
2022-11-25T01:26:31.325Z,9.00
2022-11-25T01:29:19.596Z,9.00
2022-11-25T01:32:06.598Z,9.00
2022-11-25T01:34:53.646Z,9.00
2022-11-25T01:37:40.531Z,9.00
2022-11-25T01:40:27.490Z,9.10
2022-11-25T01:43:15.440Z,9.10
2022-11-25T01:46:22.704Z,9.20
2022-11-25T01:49:15.848Z,9.20
2022-11-25T01:52:21.635Z,9.30
2022-11-25T01:55:17.520Z,9.30
2022-11-25T01:58:19.137Z,9.20
2022-11-25T02:01:06.513Z,9.30
2022-11-25T02:03:55.861Z,9.30
2022-11-25T02:06:50.648Z,9.30
2022-11-25T02:09:41.237Z,9.30
2022-11-25T02:12:29.217Z,9.30
2022-11-25T02:15:17.705Z,9.40
2022-11-25T02:18:05.088Z,9.40
2022-11-25T02:20:52.473Z,9.40
2022-11-25T02:23:39.376Z,9.40
2022-11-25T02:26:26.337Z,9.40
2022-11-25T02:29:13.305Z,9.50
2022-11-25T02:32:00.351Z,9.40
2022-11-25T02:34:48.813Z,9.60
2022-11-25T02:37:35.756Z,9.60
2022-11-25T02:40:23.896Z,9.70
2022-11-25T02:43:11.241Z,9.70
2022-11-25T02:46:07.211Z,9.80
2022-11-25T02:49:12.216Z,9.80
2022-11-25T02:51:59.597Z,9.80
2022-11-25T02:54:46.587Z,9.70
2022-11-25T02:57:33.527Z,9.70
2022-11-25T03:00:20.732Z,9.70
2022-11-25T03:03:08.194Z,9.70
2022-11-25T03:05:55.174Z,9.80
2022-11-25T03:08:42.224Z,9.70
2022-11-25T03:11:48.032Z,9.70
2022-11-25T03:14:35.131Z,9.70
2022-11-25T03:17:22.523Z,9.70
2022-11-25T03:20:10.408Z,9.60
2022-11-25T03:22:57.427Z,9.70
2022-11-25T03:25:44.548Z,9.60
2022-11-25T03:28:31.424Z,9.60
2022-11-25T03:31:18.569Z,9.60
2022-11-25T03:34:05.476Z,9.60
2022-11-25T03:36:52.655Z,9.60
2022-11-25T03:39:39.622Z,9.70
2022-11-25T03:42:26.619Z,9.70
2022-11-25T03:45:14.985Z,9.70
2022-11-25T03:48:02.203Z,9.60
2022-11-25T03:50:49.459Z,9.70
2022-11-25T03:53:36.770Z,9.60
2022-11-25T03:56:23.719Z,9.60
2022-11-25T03:59:10.745Z,9.60
2022-11-25T04:01:58.001Z,9.60
2022-11-25T04:04:45.495Z,9.50
2022-11-25T04:07:33.434Z,9.50
2022-11-25T04:10:20.695Z,9.40
2022-11-25T04:13:07.886Z,9.40
2022-11-25T04:15:55.368Z,9.50
2022-11-25T04:18:42.298Z,9.50
2022-11-25T04:21:29.249Z,9.50
2022-11-25T04:24:16.196Z,9.50
2022-11-25T04:27:03.343Z,9.40
2022-11-25T04:29:50.351Z,9.40
2022-11-25T04:32:38.828Z,9.40
2022-11-25T04:35:25.915Z,9.40
2022-11-25T04:38:13.404Z,9.30
2022-11-25T04:41:00.521Z,9.30
2022-11-25T04:43:47.628Z,9.20
2022-11-25T04:46:38.607Z,9.20
2022-11-25T04:49:25.947Z,9.20
2022-11-25T04:52:12.898Z,9.20
2022-11-25T04:55:00.424Z,9.20
2022-11-25T04:57:47.348Z,9.20
2022-11-25T05:00:34.316Z,9.20
2022-11-25T05:03:21.253Z,9.20
2022-11-25T05:06:10.131Z,9.10
2022-11-25T05:08:57.112Z,9.10
2022-11-25T05:11:44.127Z,9.10
2022-11-25T05:14:31.369Z,9.10
2022-11-25T05:17:21.629Z,9.20
2022-11-25T05:20:09.409Z,9.20
2022-11-25T05:22:56.321Z,9.10
2022-11-25T05:25:43.488Z,9.10
2022-11-25T05:28:31.198Z,9.10
2022-11-25T05:31:18.699Z,9.10
2022-11-25T05:34:06.243Z,9.10
2022-11-25T05:36:53.461Z,9.10
2022-11-25T05:39:40.877Z,9.10
2022-11-25T05:42:29.708Z,9.10
2022-11-25T05:45:16.980Z,9.10
2022-11-25T05:48:04.492Z,9.10
2022-11-25T05:50:51.995Z,9.10
2022-11-25T05:53:39.193Z,9.10
2022-11-25T05:56:26.265Z,9.10
2022-11-25T05:59:13.272Z,9.10
2022-11-25T06:02:01.685Z,9.10
2022-11-25T06:04:48.787Z,9.20
2022-11-25T06:07:36.358Z,9.10
2022-11-25T06:10:23.567Z,9.10
2022-11-25T06:13:10.768Z,9.10
2022-11-25T06:15:58.066Z,9.10
2022-11-25T06:18:46.605Z,9.10
2022-11-25T06:21:34.177Z,9.00
2022-11-25T06:24:21.514Z,9.00
2022-11-25T06:27:08.893Z,9.00
2022-11-25T06:29:56.329Z,9.00
2022-11-25T06:32:43.706Z,9.00
2022-11-25T06:35:30.698Z,9.00
2022-11-25T06:38:17.638Z,9.00
2022-11-25T06:41:06.569Z,9.00
2022-11-25T06:43:53.659Z,9.00
2022-11-25T06:46:41.161Z,9.00
2022-11-25T06:49:29.282Z,9.00
2022-11-25T06:52:16.544Z,9.10
2022-11-25T06:55:04.346Z,9.00
2022-11-25T07:02:48.064Z,9.00
2022-11-25T07:05:35.708Z,9.00
2022-11-25T07:08:25.647Z,8.90
2022-11-25T07:11:24.904Z,9.00
2022-11-25T07:14:14.271Z,9.00
2022-11-25T07:17:01.428Z,9.00
2022-11-25T07:23:20.371Z,8.90
2022-11-25T07:26:10.050Z,8.90
2022-11-25T07:32:10.731Z,8.80
2022-11-25T07:35:01.973Z,8.80
2022-11-25T07:37:49.573Z,8.80
2022-11-25T07:43:39.255Z,8.80
2022-11-25T07:46:37.584Z,8.80
2022-11-25T07:49:48.048Z,8.80
2022-11-25T07:52:45.320Z,8.80
2022-11-25T07:56:03.832Z,8.70
2022-11-25T07:59:03.165Z,8.80
2022-11-25T08:04:33.420Z,8.80
2022-11-25T08:07:20.559Z,8.70
2022-11-25T08:10:08.097Z,8.70
2022-11-25T08:12:55.130Z,8.70
2022-11-25T08:15:42.377Z,8.70
2022-11-25T08:18:29.573Z,8.70
2022-11-25T08:21:17.250Z,8.70
2022-11-25T08:24:05.547Z,8.70
2022-11-25T08:26:54.557Z,8.70
2022-11-25T08:29:42.133Z,8.70
2022-11-25T08:32:29.124Z,8.80
2022-11-25T08:35:16.397Z,8.80
2022-11-25T08:38:07.938Z,8.90
2022-11-25T08:40:55.553Z,9.00
2022-11-25T08:43:42.833Z,9.00
2022-11-25T08:46:34.104Z,9.00
2022-11-25T08:49:22.084Z,9.10
2022-11-25T08:52:10.251Z,9.20
2022-11-25T08:54:57.317Z,9.20
2022-11-25T08:57:44.416Z,9.30
2022-11-25T09:00:31.618Z,9.30
2022-11-25T09:03:20.098Z,9.40
2022-11-25T09:06:08.676Z,9.40
2022-11-25T09:08:57.441Z,9.50
2022-11-25T09:11:44.716Z,9.60
2022-11-25T09:14:32.080Z,9.60
2022-11-25T09:17:19.122Z,9.70
2022-11-25T09:20:09.629Z,9.80
2022-11-25T09:23:00.189Z,9.80
2022-11-25T09:25:55.343Z,9.90
2022-11-25T09:28:42.353Z,9.90
2022-11-25T09:31:29.495Z,9.90
2022-11-25T09:34:16.553Z,10.00
2022-11-25T09:37:03.551Z,10.00
2022-11-25T09:39:55.962Z,10.10
2022-11-25T09:43:34.030Z,10.20
2022-11-25T09:46:42.531Z,10.20
2022-11-25T09:49:44.828Z,10.30
2022-11-25T09:53:04.399Z,10.50
2022-11-25T09:56:01.441Z,10.60
2022-11-25T09:58:55.248Z,10.70
2022-11-25T10:02:04.918Z,10.60
2022-11-25T10:05:01.964Z,10.60
2022-11-25T10:07:56.749Z,10.60
2022-11-25T10:10:48.091Z,10.60
2022-11-25T10:13:48.078Z,10.70
2022-11-25T10:16:38.410Z,10.80
2022-11-25T10:20:03.149Z,11.00
2022-11-25T10:22:57.921Z,11.00
2022-11-25T10:25:47.058Z,11.10
2022-11-25T10:31:20.185Z,11.20
2022-11-25T10:47:36.669Z,11.80
2022-11-25T10:50:34.203Z,11.90
2022-11-25T10:53:25.674Z,12.00
2022-11-25T10:56:18.941Z,12.10
2022-11-25T10:59:14.468Z,12.10
2022-11-25T11:02:25.652Z,12.00
2022-11-25T11:05:12.780Z,12.20
2022-11-25T11:08:19.631Z,12.20
2022-11-25T11:11:19.901Z,12.20
2022-11-25T11:14:14.286Z,12.20
2022-11-25T11:17:01.246Z,12.20
2022-11-25T11:20:13.820Z,12.30
2022-11-25T11:23:13.928Z,12.40
2022-11-25T11:26:06.851Z,12.40
2022-11-25T11:29:19.496Z,12.40
2022-11-25T11:32:17.003Z,12.40
2022-11-25T11:35:13.394Z,12.50
2022-11-25T11:38:13.089Z,12.40
2022-11-25T11:41:26.574Z,12.50
2022-11-25T11:44:30.117Z,12.60
2022-11-25T11:47:54.041Z,12.60
2022-11-25T11:51:08.637Z,12.60
2022-11-25T11:54:15.689Z,12.70
2022-11-25T11:57:05.047Z,12.60
2022-11-25T12:00:00.258Z,12.70
2022-11-25T12:02:56.824Z,12.70
2022-11-25T12:05:44.191Z,12.70
2022-11-25T12:08:37.305Z,12.60
2022-11-25T12:11:33.649Z,12.80
2022-11-25T12:14:23.663Z,12.80
2022-11-25T12:17:27.083Z,12.80
2022-11-25T12:20:29.184Z,12.80
2022-11-25T12:23:29.359Z,12.80
2022-11-25T12:26:38.209Z,13.00
2022-11-25T12:29:52.620Z,13.00
2022-11-25T12:33:05.037Z,13.10
2022-11-25T12:36:04.477Z,13.00
2022-11-25T12:39:16.339Z,13.00
2022-11-25T12:42:14.128Z,13.10
2022-11-25T12:45:20.457Z,13.10
2022-11-25T12:48:11.642Z,13.20
2022-11-25T12:51:26.002Z,13.10
2022-11-25T12:54:27.767Z,13.10
2022-11-25T12:57:37.248Z,13.20
2022-11-25T13:00:41.004Z,13.30
2022-11-25T13:04:16.860Z,13.10
2022-11-25T13:07:27.053Z,13.20
2022-11-25T13:10:28.984Z,13.10
2022-11-25T13:13:27.518Z,13.00
2022-11-25T13:16:16.338Z,12.90
2022-11-25T13:19:09.363Z,12.80
2022-11-25T13:22:06.181Z,12.70
2022-11-25T13:24:53.346Z,12.80
2022-11-25T13:27:40.588Z,12.90
2022-11-25T13:30:33.722Z,13.00
2022-11-25T13:33:23.650Z,13.00
2022-11-25T13:36:18.022Z,13.00
2022-11-25T13:39:17.115Z,12.90
2022-11-25T13:42:18.479Z,12.80
2022-11-25T13:45:32.901Z,12.80
2022-11-25T13:48:22.090Z,12.90
2022-11-25T13:51:22.180Z,12.70
2022-11-25T13:54:19.097Z,12.70
2022-11-25T13:57:12.056Z,12.70
2022-11-25T14:00:20.466Z,12.60
2022-11-25T14:03:19.334Z,12.50
2022-11-25T14:06:12.769Z,12.40
2022-11-25T14:09:21.422Z,12.40
2022-11-25T14:12:22.547Z,12.40
2022-11-25T14:15:15.007Z,12.40
2022-11-25T14:18:51.241Z,12.30
2022-11-25T14:22:12.860Z,12.20
2022-11-25T14:25:23.715Z,12.30
2022-11-25T14:28:34.520Z,12.20
2022-11-25T14:31:32.411Z,12.20
2022-11-25T14:34:27.796Z,12.20
2022-11-25T14:37:28.110Z,12.20
2022-11-25T14:40:15.044Z,12.20
2022-11-25T14:43:09.210Z,12.20
2022-11-25T14:46:21.731Z,12.20
2022-11-25T14:49:30.618Z,12.20
2022-11-25T14:52:24.899Z,12.10
2022-11-25T14:55:12.802Z,12.00
2022-11-25T14:57:59.863Z,12.00
2022-11-25T15:01:01.006Z,11.90
2022-11-25T15:03:49.856Z,12.00
2022-11-25T15:06:39.703Z,11.90
2022-11-25T15:09:32.671Z,11.80
2022-11-25T15:12:22.117Z,11.60
2022-11-25T15:15:15.308Z,11.60
2022-11-25T15:18:06.624Z,11.40
2022-11-25T15:20:59.149Z,11.20
2022-11-25T15:23:46.373Z,11.20
2022-11-25T15:26:36.271Z,11.20
2022-11-25T15:29:27.667Z,11.20
2022-11-25T15:32:38.347Z,11.20
2022-11-25T15:35:27.385Z,11.20
2022-11-25T15:38:36.663Z,11.20
2022-11-25T15:41:33.380Z,11.20
2022-11-25T15:44:30.569Z,11.20
2022-11-25T15:47:23.251Z,11.20
2022-11-25T15:50:24.433Z,11.20
2022-11-25T15:53:27.637Z,11.20
2022-11-25T15:56:23.277Z,11.10
2022-11-25T15:59:41.707Z,11.20
2022-11-25T16:02:43.600Z,11.10
2022-11-25T16:05:36.094Z,11.20
2022-11-25T16:08:38.548Z,11.20
2022-11-25T16:11:30.373Z,11.10
2022-11-25T16:14:28.701Z,11.20
2022-11-25T16:17:15.811Z,11.10
2022-11-25T16:20:03.445Z,11.20
2022-11-25T16:22:50.475Z,11.10
2022-11-25T16:25:38.446Z,11.20
2022-11-25T16:28:25.461Z,11.20
2022-11-25T16:31:17.245Z,11.10
2022-11-25T16:34:20.358Z,11.00
2022-11-25T16:37:07.361Z,11.00
2022-11-25T16:39:54.406Z,10.90
2022-11-25T16:42:41.870Z,10.90
2022-11-25T16:45:29.261Z,10.90
2022-11-25T16:48:17.921Z,10.80
2022-11-25T16:51:13.565Z,10.80
2022-11-25T16:54:00.485Z,10.90
2022-11-25T16:56:51.441Z,10.80
2022-11-25T16:59:42.762Z,10.80
2022-11-25T17:02:30.295Z,10.80
2022-11-25T17:05:25.459Z,10.80
2022-11-25T17:08:13.371Z,10.70
2022-11-25T17:11:00.351Z,10.70
2022-11-25T17:13:51.044Z,10.70
2022-11-25T17:16:38.462Z,10.70
2022-11-25T17:19:25.506Z,10.70
2022-11-25T17:22:18.765Z,10.60
2022-11-25T17:25:06.133Z,10.60
2022-11-25T17:27:54.250Z,10.60
2022-11-25T17:30:42.713Z,10.60
2022-11-25T17:33:29.708Z,10.60
2022-11-25T17:36:16.719Z,10.50
2022-11-25T17:39:03.910Z,10.50
2022-11-25T17:41:51.682Z,10.50
2022-11-25T17:44:40.150Z,10.50
2022-11-25T17:47:27.380Z,10.50
2022-11-25T17:50:21.210Z,10.40
2022-11-25T17:53:09.404Z,10.40
2022-11-25T17:55:56.517Z,10.40
2022-11-25T17:58:43.462Z,10.30
2022-11-25T18:01:31.105Z,10.30
2022-11-25T18:04:26.292Z,10.30
2022-11-25T18:07:13.516Z,10.20
2022-11-25T18:10:00.746Z,10.20
2022-11-25T18:12:51.048Z,10.20
2022-11-25T18:15:38.502Z,10.10
2022-11-25T18:18:26.096Z,10.00
2022-11-25T18:21:13.316Z,9.90
2022-11-25T18:24:00.450Z,9.90
2022-11-25T18:26:50.730Z,9.90
2022-11-25T18:29:38.285Z,9.80
2022-11-25T18:32:25.694Z,9.80
2022-11-25T18:35:25.131Z,9.80
2022-11-25T18:38:12.758Z,9.80
2022-11-25T18:41:01.603Z,9.80
2022-11-25T18:43:48.629Z,9.80
2022-11-25T18:46:37.643Z,9.80
2022-11-25T18:49:24.930Z,9.80
2022-11-25T18:52:11.835Z,9.60
2022-11-25T18:54:59.036Z,9.70
2022-11-25T18:57:49.358Z,9.60
2022-11-25T19:00:36.337Z,9.60
2022-11-25T19:03:26.895Z,9.50
2022-11-25T19:06:16.856Z,9.60
2022-11-25T19:09:03.935Z,9.50
2022-11-25T19:11:54.189Z,9.40
2022-11-25T19:14:42.107Z,9.40
2022-11-25T19:17:29.287Z,9.30
2022-11-25T19:20:18.920Z,9.20
2022-11-25T19:23:27.855Z,9.10
2022-11-25T19:26:19.764Z,9.10
2022-11-25T19:29:13.242Z,9.10
2022-11-25T19:32:02.463Z,9.00
2022-11-25T19:35:08.344Z,8.90
2022-11-25T19:37:55.501Z,8.90
2022-11-25T19:40:42.390Z,8.80
2022-11-25T19:43:29.673Z,8.70
2022-11-25T19:46:33.184Z,8.80
2022-11-25T19:49:24.595Z,8.70
2022-11-25T19:52:17.270Z,8.60
2022-11-25T19:55:15.164Z,8.50
2022-11-25T19:58:02.116Z,8.50
2022-11-25T20:00:49.085Z,8.50
2022-11-25T20:03:36.980Z,8.50
2022-11-25T20:06:24.981Z,8.50
2022-11-25T20:09:12.634Z,8.40
2022-11-25T20:12:08.018Z,8.30
2022-11-25T20:14:57.815Z,8.30
2022-11-25T20:17:50.874Z,8.30
2022-11-25T20:20:40.545Z,8.20
2022-11-25T20:23:32.353Z,8.20
2022-11-25T20:26:30.858Z,8.20
2022-11-25T20:29:22.662Z,8.20
2022-11-25T20:32:39.390Z,8.10
2022-11-25T20:35:26.368Z,8.00
2022-11-25T20:38:19.271Z,8.00
2022-11-25T20:41:06.376Z,8.10
2022-11-25T20:43:53.671Z,8.00
2022-11-25T20:46:40.770Z,8.00
2022-11-25T20:49:29.053Z,8.00
2022-11-25T20:52:28.130Z,7.90
2022-11-25T20:55:24.232Z,7.90
2022-11-25T20:58:27.090Z,7.90
2022-11-25T21:01:15.064Z,7.80
2022-11-25T21:04:02.039Z,7.70
2022-11-25T21:06:48.941Z,7.70
2022-11-25T21:09:36.317Z,7.70
2022-11-25T21:12:23.232Z,7.60
2022-11-25T21:15:15.652Z,7.60
2022-11-25T21:18:02.703Z,7.70
2022-11-25T21:20:51.807Z,7.50
2022-11-25T21:23:38.765Z,7.50
2022-11-25T21:26:26.836Z,7.40
2022-11-25T21:29:16.688Z,7.30
2022-11-25T21:32:06.350Z,7.20
2022-11-25T21:34:54.092Z,7.20
2022-11-25T21:37:43.365Z,7.10
2022-11-25T21:40:48.016Z,7.10
2022-11-25T21:43:39.611Z,7.00
2022-11-25T21:46:28.244Z,7.00
2022-11-25T21:49:15.200Z,7.00
2022-11-25T21:52:02.063Z,6.90
2022-11-25T21:54:49.020Z,6.90
2022-11-25T21:57:36.013Z,6.90
2022-11-25T22:00:25.467Z,6.80
2022-11-25T22:03:17.460Z,6.80
2022-11-25T22:06:12.961Z,6.80
2022-11-25T22:08:59.884Z,6.70
2022-11-25T22:11:50.197Z,6.70
2022-11-25T22:14:38.225Z,6.70
2022-11-25T22:17:25.990Z,6.60
2022-11-25T22:20:27.066Z,6.50
2022-11-25T22:23:16.996Z,6.50
2022-11-25T22:26:04.822Z,6.60
2022-11-25T22:28:52.920Z,6.60
2022-11-25T22:31:40.201Z,6.60
2022-11-25T22:34:27.428Z,6.60
2022-11-25T22:37:19.960Z,6.70
2022-11-25T22:40:08.287Z,6.60
2022-11-25T22:42:56.271Z,6.60
2022-11-25T22:45:44.361Z,6.60
2022-11-25T22:48:36.330Z,6.50
2022-11-25T22:51:27.454Z,6.50
2022-11-25T22:54:14.662Z,6.50
2022-11-25T22:57:01.672Z,6.40
2022-11-25T22:59:48.584Z,6.40
2022-11-25T23:02:36.398Z,6.40
2022-11-25T23:05:33.194Z,6.40
2022-11-25T23:08:23.645Z,6.40
2022-11-25T23:11:21.365Z,6.30
2022-11-25T23:14:08.424Z,6.30
2022-11-25T23:16:55.833Z,6.30
2022-11-25T23:19:42.950Z,6.20
2022-11-25T23:22:29.934Z,6.20
2022-11-25T23:25:20.614Z,6.20
2022-11-25T23:28:07.586Z,6.20
2022-11-25T23:31:00.928Z,6.10
2022-11-25T23:33:51.713Z,6.10
2022-11-25T23:36:45.978Z,6.00
2022-11-25T23:39:32.911Z,6.00
2022-11-25T23:42:20.500Z,6.00
2022-11-25T23:45:10.002Z,6.00
2022-11-25T23:47:57.389Z,6.00
2022-11-25T23:50:45.089Z,6.00
2022-11-25T23:53:35.829Z,6.00
2022-11-25T23:56:24.236Z,6.00
2022-11-25T23:59:15.374Z,6.00
